sensor_id;sensor_type;location;lat;lon;timestamp;P1;durP1;ratioP1;P2;durP2;ratioP2
53549;SDS011;67273;52.914;-0.982;2023-08-07T00:01:11;1.73;;;1.30;;
53549;SDS011;67273;52.914;-0.982;2023-08-07T00:03:38;2.38;;;1.45;;
53549;SDS011;67273;52.914;-0.982;2023-08-07T00:06:04;2.22;;;1.30;;
53549;SDS011;67273;52.914;-0.982;2023-08-07T00:08:30;2.67;;;1.70;;
53549;SDS011;67273;52.914;-0.982;2023-08-07T00:11:03;3.20;;;1.55;;
53549;SDS011;67273;52.914;-0.982;2023-08-07T00:13:30;2.60;;;1.70;;
53549;SDS011;67273;52.914;-0.982;2023-08-07T00:15:55;3.42;;;1.73;;
53549;SDS011;67273;52.914;-0.982;2023-08-07T00:18:21;3.13;;;1.60;;
53549;SDS011;67273;52.914;-0.982;2023-08-07T00:20:48;2.95;;;1.50;;
53549;SDS011;67273;52.914;-0.982;2023-08-07T00:23:14;2.30;;;1.50;;
53549;SDS011;67273;52.914;-0.982;2023-08-07T00:25:40;2.30;;;1.50;;
53549;SDS011;67273;52.914;-0.982;2023-08-07T00:28:05;2.90;;;1.70;;
53549;SDS011;67273;52.914;-0.982;2023-08-07T00:30:31;3.10;;;1.70;;
53549;SDS011;67273;52.914;-0.982;2023-08-07T00:32:57;2.60;;;1.60;;
53549;SDS011;67273;52.914;-0.982;2023-08-07T00:35:23;2.90;;;1.60;;
53549;SDS011;67273;52.914;-0.982;2023-08-07T00:37:50;2.38;;;1.42;;
53549;SDS011;67273;52.914;-0.982;2023-08-07T00:40:16;2.50;;;1.73;;
53549;SDS011;67273;52.914;-0.982;2023-08-07T00:42:42;2.45;;;1.45;;
53549;SDS011;67273;52.914;-0.982;2023-08-07T00:45:08;2.28;;;1.63;;
53549;SDS011;67273;52.914;-0.982;2023-08-07T00:47:34;1.50;;;1.30;;
53549;SDS011;67273;52.914;-0.982;2023-08-07T00:50:01;2.20;;;1.55;;
53549;SDS011;67273;52.914;-0.982;2023-08-07T00:52:29;4.70;;;1.73;;
53549;SDS011;67273;52.914;-0.982;2023-08-07T00:54:56;2.67;;;1.60;;
53549;SDS011;67273;52.914;-0.982;2023-08-07T00:57:21;3.75;;;1.80;;
53549;SDS011;67273;52.914;-0.982;2023-08-07T00:59:48;3.20;;;1.80;;
53549;SDS011;67273;52.914;-0.982;2023-08-07T01:02:14;2.85;;;1.60;;
53549;SDS011;67273;52.914;-0.982;2023-08-07T01:04:40;3.33;;;1.70;;
53549;SDS011;67273;52.914;-0.982;2023-08-07T01:07:07;3.08;;;1.80;;
53549;SDS011;67273;52.914;-0.982;2023-08-07T01:09:32;2.65;;;1.90;;
53549;SDS011;67273;52.914;-0.982;2023-08-07T01:12:02;3.75;;;1.67;;
53549;SDS011;67273;52.914;-0.982;2023-08-07T01:14:40;3.88;;;2.13;;
53549;SDS011;67273;52.914;-0.982;2023-08-07T01:17:17;2.65;;;2.00;;
53549;SDS011;67273;52.914;-0.982;2023-08-07T01:19:48;2.75;;;1.85;;
53549;SDS011;67273;52.914;-0.982;2023-08-07T01:22:18;4.18;;;1.98;;
53549;SDS011;67273;52.914;-0.982;2023-08-07T01:24:48;3.47;;;2.20;;
53549;SDS011;67273;52.914;-0.982;2023-08-07T01:27:20;5.43;;;1.95;;
53549;SDS011;67273;52.914;-0.982;2023-08-07T01:29:57;3.25;;;1.90;;
53549;SDS011;67273;52.914;-0.982;2023-08-07T01:32:32;2.70;;;1.95;;
53549;SDS011;67273;52.914;-0.982;2023-08-07T01:35:07;4.18;;;2.10;;
53549;SDS011;67273;52.914;-0.982;2023-08-07T01:37:40;3.53;;;1.73;;
53549;SDS011;67273;52.914;-0.982;2023-08-07T01:40:09;3.53;;;1.90;;
53549;SDS011;67273;52.914;-0.982;2023-08-07T01:42:37;4.82;;;2.08;;
53549;SDS011;67273;52.914;-0.982;2023-08-07T01:45:04;3.35;;;1.90;;
53549;SDS011;67273;52.914;-0.982;2023-08-07T01:47:30;5.22;;;2.28;;
53549;SDS011;67273;52.914;-0.982;2023-08-07T01:49:55;2.95;;;1.77;;
53549;SDS011;67273;52.914;-0.982;2023-08-07T01:52:21;4.00;;;2.10;;
53549;SDS011;67273;52.914;-0.982;2023-08-07T01:54:49;3.10;;;1.90;;
53549;SDS011;67273;52.914;-0.982;2023-08-07T01:57:14;3.67;;;1.90;;
53549;SDS011;67273;52.914;-0.982;2023-08-07T01:59:40;2.90;;;1.70;;
53549;SDS011;67273;52.914;-0.982;2023-08-07T02:02:06;3.88;;;1.90;;
53549;SDS011;67273;52.914;-0.982;2023-08-07T02:04:32;3.15;;;1.88;;
53549;SDS011;67273;52.914;-0.982;2023-08-07T02:06:58;3.90;;;2.30;;
53549;SDS011;67273;52.914;-0.982;2023-08-07T02:09:23;3.53;;;1.80;;
53549;SDS011;67273;52.914;-0.982;2023-08-07T02:11:50;3.20;;;1.88;;
53549;SDS011;67273;52.914;-0.982;2023-08-07T02:14:16;4.40;;;2.22;;
53549;SDS011;67273;52.914;-0.982;2023-08-07T02:16:42;4.50;;;2.00;;
53549;SDS011;67273;52.914;-0.982;2023-08-07T02:19:07;4.07;;;2.13;;
53549;SDS011;67273;52.914;-0.982;2023-08-07T02:21:33;2.50;;;1.70;;
53549;SDS011;67273;52.914;-0.982;2023-08-07T02:23:59;2.60;;;1.80;;
53549;SDS011;67273;52.914;-0.982;2023-08-07T02:26:25;4.82;;;2.00;;
53549;SDS011;67273;52.914;-0.982;2023-08-07T02:28:52;2.97;;;1.88;;
53549;SDS011;67273;52.914;-0.982;2023-08-07T02:31:17;2.22;;;1.73;;
53549;SDS011;67273;52.914;-0.982;2023-08-07T02:33:44;4.32;;;2.17;;
53549;SDS011;67273;52.914;-0.982;2023-08-07T02:36:13;3.85;;;2.00;;
53549;SDS011;67273;52.914;-0.982;2023-08-07T02:38:38;3.88;;;2.10;;
53549;SDS011;67273;52.914;-0.982;2023-08-07T02:41:04;3.95;;;1.90;;
53549;SDS011;67273;52.914;-0.982;2023-08-07T02:43:30;4.93;;;2.35;;
53549;SDS011;67273;52.914;-0.982;2023-08-07T02:46:00;3.50;;;2.10;;
53549;SDS011;67273;52.914;-0.982;2023-08-07T02:48:26;3.53;;;2.17;;
53549;SDS011;67273;52.914;-0.982;2023-08-07T02:50:52;3.97;;;2.00;;
53549;SDS011;67273;52.914;-0.982;2023-08-07T02:53:18;4.22;;;2.22;;
53549;SDS011;67273;52.914;-0.982;2023-08-07T02:55:44;2.75;;;1.95;;
53549;SDS011;67273;52.914;-0.982;2023-08-07T02:58:09;3.17;;;1.70;;
53549;SDS011;67273;52.914;-0.982;2023-08-07T03:00:35;5.50;;;2.17;;
53549;SDS011;67273;52.914;-0.982;2023-08-07T03:03:02;2.80;;;1.90;;
53549;SDS011;67273;52.914;-0.982;2023-08-07T03:05:28;3.40;;;2.10;;
53549;SDS011;67273;52.914;-0.982;2023-08-07T03:07:54;3.20;;;2.00;;
53549;SDS011;67273;52.914;-0.982;2023-08-07T03:10:20;3.13;;;2.08;;
53549;SDS011;67273;52.914;-0.982;2023-08-07T03:12:46;4.22;;;2.00;;
53549;SDS011;67273;52.914;-0.982;2023-08-07T03:15:12;2.88;;;1.83;;
53549;SDS011;67273;52.914;-0.982;2023-08-07T03:17:37;3.50;;;1.92;;
53549;SDS011;67273;52.914;-0.982;2023-08-07T03:20:05;3.85;;;2.10;;
53549;SDS011;67273;52.914;-0.982;2023-08-07T03:22:31;5.35;;;2.30;;
53549;SDS011;67273;52.914;-0.982;2023-08-07T03:24:59;5.57;;;2.00;;
53549;SDS011;67273;52.914;-0.982;2023-08-07T03:27:26;3.55;;;2.22;;
53549;SDS011;67273;52.914;-0.982;2023-08-07T03:29:53;3.97;;;2.15;;
53549;SDS011;67273;52.914;-0.982;2023-08-07T03:32:19;4.18;;;2.17;;
53549;SDS011;67273;52.914;-0.982;2023-08-07T03:34:45;4.72;;;2.20;;
53549;SDS011;67273;52.914;-0.982;2023-08-07T03:37:13;4.32;;;2.30;;
53549;SDS011;67273;52.914;-0.982;2023-08-07T03:39:39;5.43;;;2.38;;
53549;SDS011;67273;52.914;-0.982;2023-08-07T03:42:05;3.35;;;2.17;;
53549;SDS011;67273;52.914;-0.982;2023-08-07T03:44:31;4.25;;;2.33;;
53549;SDS011;67273;52.914;-0.982;2023-08-07T03:47:00;3.58;;;2.20;;
53549;SDS011;67273;52.914;-0.982;2023-08-07T03:49:29;4.28;;;2.20;;
53549;SDS011;67273;52.914;-0.982;2023-08-07T03:51:57;4.38;;;2.30;;
53549;SDS011;67273;52.914;-0.982;2023-08-07T03:54:27;3.58;;;2.25;;
53549;SDS011;67273;52.914;-0.982;2023-08-07T03:56:57;3.67;;;2.17;;
53549;SDS011;67273;52.914;-0.982;2023-08-07T03:59:24;4.57;;;2.30;;
53549;SDS011;67273;52.914;-0.982;2023-08-07T04:01:52;3.95;;;2.10;;
53549;SDS011;67273;52.914;-0.982;2023-08-07T04:04:18;4.80;;;2.30;;
53549;SDS011;67273;52.914;-0.982;2023-08-07T04:06:43;3.88;;;2.10;;
53549;SDS011;67273;52.914;-0.982;2023-08-07T04:09:09;3.33;;;2.20;;
53549;SDS011;67273;52.914;-0.982;2023-08-07T04:11:37;2.90;;;2.00;;
53549;SDS011;67273;52.914;-0.982;2023-08-07T04:14:03;3.33;;;2.10;;
53549;SDS011;67273;52.914;-0.982;2023-08-07T04:16:29;4.47;;;2.22;;
53549;SDS011;67273;52.914;-0.982;2023-08-07T04:18:56;3.17;;;2.10;;
53549;SDS011;67273;52.914;-0.982;2023-08-07T04:21:22;3.58;;;2.10;;
53549;SDS011;67273;52.914;-0.982;2023-08-07T04:23:48;4.25;;;2.40;;
53549;SDS011;67273;52.914;-0.982;2023-08-07T04:26:14;3.45;;;2.03;;
53549;SDS011;67273;52.914;-0.982;2023-08-07T04:28:41;3.53;;;1.80;;
53549;SDS011;67273;52.914;-0.982;2023-08-07T04:31:07;3.45;;;2.17;;
53549;SDS011;67273;52.914;-0.982;2023-08-07T04:33:33;3.03;;;2.13;;
53549;SDS011;67273;52.914;-0.982;2023-08-07T04:35:59;4.95;;;2.38;;
53549;SDS011;67273;52.914;-0.982;2023-08-07T04:38:25;4.13;;;2.08;;
53549;SDS011;67273;52.914;-0.982;2023-08-07T04:40:51;3.72;;;2.22;;
53549;SDS011;67273;52.914;-0.982;2023-08-07T04:43:18;3.72;;;2.10;;
53549;SDS011;67273;52.914;-0.982;2023-08-07T04:45:47;3.53;;;2.00;;
53549;SDS011;67273;52.914;-0.982;2023-08-07T04:48:14;6.28;;;2.20;;
53549;SDS011;67273;52.914;-0.982;2023-08-07T04:50:41;2.25;;;1.92;;
53549;SDS011;67273;52.914;-0.982;2023-08-07T04:53:08;4.20;;;2.00;;
53549;SDS011;67273;52.914;-0.982;2023-08-07T04:55:35;2.28;;;1.75;;
53549;SDS011;67273;52.914;-0.982;2023-08-07T04:58:01;3.25;;;1.83;;
53549;SDS011;67273;52.914;-0.982;2023-08-07T05:00:27;2.60;;;1.80;;
53549;SDS011;67273;52.914;-0.982;2023-08-07T05:02:55;4.15;;;1.90;;
53549;SDS011;67273;52.914;-0.982;2023-08-07T05:05:21;3.08;;;1.90;;
53549;SDS011;67273;52.914;-0.982;2023-08-07T05:07:46;3.13;;;1.65;;
53549;SDS011;67273;52.914;-0.982;2023-08-07T05:10:12;3.00;;;1.90;;
53549;SDS011;67273;52.914;-0.982;2023-08-07T05:12:38;2.30;;;1.70;;
53549;SDS011;67273;52.914;-0.982;2023-08-07T05:15:04;2.55;;;1.60;;
53549;SDS011;67273;52.914;-0.982;2023-08-07T05:17:31;3.92;;;1.88;;
53549;SDS011;67273;52.914;-0.982;2023-08-07T05:19:58;3.20;;;2.00;;
53549;SDS011;67273;52.914;-0.982;2023-08-07T05:22:24;2.33;;;1.77;;
53549;SDS011;67273;52.914;-0.982;2023-08-07T05:24:49;3.83;;;1.70;;
53549;SDS011;67273;52.914;-0.982;2023-08-07T05:27:16;3.15;;;1.88;;
53549;SDS011;67273;52.914;-0.982;2023-08-07T05:29:44;3.28;;;1.92;;
53549;SDS011;67273;52.914;-0.982;2023-08-07T05:32:12;3.33;;;1.80;;
53549;SDS011;67273;52.914;-0.982;2023-08-07T05:34:40;3.83;;;1.88;;
53549;SDS011;67273;52.914;-0.982;2023-08-07T05:37:07;3.15;;;1.60;;
53549;SDS011;67273;52.914;-0.982;2023-08-07T05:39:33;2.00;;;1.48;;
53549;SDS011;67273;52.914;-0.982;2023-08-07T05:41:59;3.28;;;1.63;;
53549;SDS011;67273;52.914;-0.982;2023-08-07T05:44:25;5.40;;;1.73;;
53549;SDS011;67273;52.914;-0.982;2023-08-07T05:46:51;3.55;;;1.90;;
53549;SDS011;67273;52.914;-0.982;2023-08-07T05:49:17;4.30;;;1.90;;
53549;SDS011;67273;52.914;-0.982;2023-08-07T05:51:42;3.97;;;1.52;;
53549;SDS011;67273;52.914;-0.982;2023-08-07T05:54:10;3.03;;;1.77;;
53549;SDS011;67273;52.914;-0.982;2023-08-07T05:56:37;2.70;;;1.80;;
53549;SDS011;67273;52.914;-0.982;2023-08-07T05:59:03;3.40;;;2.10;;
53549;SDS011;67273;52.914;-0.982;2023-08-07T06:01:29;3.75;;;1.65;;
53549;SDS011;67273;52.914;-0.982;2023-08-07T06:03:58;3.38;;;1.90;;
53549;SDS011;67273;52.914;-0.982;2023-08-07T06:06:24;3.05;;;1.60;;
53549;SDS011;67273;52.914;-0.982;2023-08-07T06:08:50;1.98;;;1.50;;
53549;SDS011;67273;52.914;-0.982;2023-08-07T06:11:17;3.20;;;1.80;;
53549;SDS011;67273;52.914;-0.982;2023-08-07T06:13:43;2.90;;;1.83;;
53549;SDS011;67273;52.914;-0.982;2023-08-07T06:16:09;2.67;;;1.60;;
53549;SDS011;67273;52.914;-0.982;2023-08-07T06:18:35;2.58;;;1.70;;
53549;SDS011;67273;52.914;-0.982;2023-08-07T06:21:01;2.60;;;1.60;;
53549;SDS011;67273;52.914;-0.982;2023-08-07T06:23:27;3.08;;;1.50;;
53549;SDS011;67273;52.914;-0.982;2023-08-07T06:25:54;2.00;;;1.60;;
53549;SDS011;67273;52.914;-0.982;2023-08-07T06:28:21;3.28;;;1.70;;
53549;SDS011;67273;52.914;-0.982;2023-08-07T06:30:46;4.65;;;2.00;;
53549;SDS011;67273;52.914;-0.982;2023-08-07T06:33:12;2.92;;;1.83;;
53549;SDS011;67273;52.914;-0.982;2023-08-07T06:35:38;2.22;;;1.60;;
53549;SDS011;67273;52.914;-0.982;2023-08-07T06:38:04;2.22;;;1.33;;
53549;SDS011;67273;52.914;-0.982;2023-08-07T06:40:30;2.85;;;1.77;;
53549;SDS011;67273;52.914;-0.982;2023-08-07T06:42:56;2.35;;;1.70;;
53549;SDS011;67273;52.914;-0.982;2023-08-07T06:45:24;3.15;;;1.60;;
53549;SDS011;67273;52.914;-0.982;2023-08-07T06:47:50;2.78;;;1.70;;
53549;SDS011;67273;52.914;-0.982;2023-08-07T06:50:16;2.15;;;1.67;;
53549;SDS011;67273;52.914;-0.982;2023-08-07T06:52:44;3.03;;;1.60;;
53549;SDS011;67273;52.914;-0.982;2023-08-07T06:55:13;3.28;;;1.73;;
53549;SDS011;67273;52.914;-0.982;2023-08-07T06:57:41;4.45;;;1.73;;
53549;SDS011;67273;52.914;-0.982;2023-08-07T07:00:09;4.63;;;1.70;;
53549;SDS011;67273;52.914;-0.982;2023-08-07T07:02:41;4.25;;;1.92;;
53549;SDS011;67273;52.914;-0.982;2023-08-07T07:05:08;2.42;;;1.67;;
53549;SDS011;67273;52.914;-0.982;2023-08-07T07:07:37;3.42;;;1.80;;
53549;SDS011;67273;52.914;-0.982;2023-08-07T07:10:05;3.30;;;1.70;;
53549;SDS011;67273;52.914;-0.982;2023-08-07T07:12:32;3.83;;;1.92;;
53549;SDS011;67273;52.914;-0.982;2023-08-07T07:15:01;2.95;;;1.70;;
53549;SDS011;67273;52.914;-0.982;2023-08-07T07:17:28;2.50;;;1.80;;
53549;SDS011;67273;52.914;-0.982;2023-08-07T07:19:58;3.78;;;1.95;;
53549;SDS011;67273;52.914;-0.982;2023-08-07T07:22:26;1.95;;;1.65;;
53549;SDS011;67273;52.914;-0.982;2023-08-07T07:24:54;2.30;;;1.80;;
53549;SDS011;67273;52.914;-0.982;2023-08-07T07:27:20;2.33;;;1.50;;
53549;SDS011;67273;52.914;-0.982;2023-08-07T07:29:49;3.08;;;1.80;;
53549;SDS011;67273;52.914;-0.982;2023-08-07T07:32:16;3.78;;;1.60;;
53549;SDS011;67273;52.914;-0.982;2023-08-07T07:34:42;2.95;;;1.67;;
53549;SDS011;67273;52.914;-0.982;2023-08-07T07:37:10;3.17;;;1.70;;
53549;SDS011;67273;52.914;-0.982;2023-08-07T07:39:43;3.60;;;1.60;;
53549;SDS011;67273;52.914;-0.982;2023-08-07T07:42:12;3.80;;;1.88;;
53549;SDS011;67273;52.914;-0.982;2023-08-07T07:44:40;3.05;;;1.58;;
53549;SDS011;67273;52.914;-0.982;2023-08-07T07:47:08;3.72;;;1.70;;
53549;SDS011;67273;52.914;-0.982;2023-08-07T07:49:35;3.92;;;1.80;;
53549;SDS011;67273;52.914;-0.982;2023-08-07T07:52:03;2.45;;;1.63;;
53549;SDS011;67273;52.914;-0.982;2023-08-07T07:54:35;5.60;;;1.95;;
53549;SDS011;67273;52.914;-0.982;2023-08-07T07:57:02;3.97;;;2.00;;
53549;SDS011;67273;52.914;-0.982;2023-08-07T07:59:29;4.40;;;1.85;;
53549;SDS011;67273;52.914;-0.982;2023-08-07T08:01:55;3.67;;;1.50;;
53549;SDS011;67273;52.914;-0.982;2023-08-07T08:04:22;2.95;;;1.60;;
53549;SDS011;67273;52.914;-0.982;2023-08-07T08:06:48;2.28;;;1.50;;
53549;SDS011;67273;52.914;-0.982;2023-08-07T08:09:14;3.80;;;1.60;;
53549;SDS011;67273;52.914;-0.982;2023-08-07T08:11:42;3.35;;;1.80;;
53549;SDS011;67273;52.914;-0.982;2023-08-07T08:14:11;4.32;;;1.73;;
53549;SDS011;67273;52.914;-0.982;2023-08-07T08:16:38;2.55;;;1.63;;
53549;SDS011;67273;52.914;-0.982;2023-08-07T08:19:06;6.32;;;1.80;;
53549;SDS011;67273;52.914;-0.982;2023-08-07T08:21:33;3.40;;;1.60;;
53549;SDS011;67273;52.914;-0.982;2023-08-07T08:23:59;4.65;;;1.70;;
53549;SDS011;67273;52.914;-0.982;2023-08-07T08:26:25;5.80;;;1.60;;
53549;SDS011;67273;52.914;-0.982;2023-08-07T08:28:52;4.55;;;1.85;;
53549;SDS011;67273;52.914;-0.982;2023-08-07T08:31:18;2.83;;;1.67;;
53549;SDS011;67273;52.914;-0.982;2023-08-07T08:33:46;4.53;;;1.60;;
53549;SDS011;67273;52.914;-0.982;2023-08-07T08:36:12;5.18;;;1.90;;
53549;SDS011;67273;52.914;-0.982;2023-08-07T08:38:38;3.13;;;1.45;;
53549;SDS011;67273;52.914;-0.982;2023-08-07T08:41:03;5.10;;;1.73;;
53549;SDS011;67273;52.914;-0.982;2023-08-07T08:43:34;2.67;;;1.50;;
53549;SDS011;67273;52.914;-0.982;2023-08-07T08:46:05;2.03;;;1.15;;
53549;SDS011;67273;52.914;-0.982;2023-08-07T08:48:30;2.60;;;1.63;;
53549;SDS011;67273;52.914;-0.982;2023-08-07T08:51:01;4.28;;;1.63;;
53549;SDS011;67273;52.914;-0.982;2023-08-07T08:53:29;5.35;;;1.50;;
53549;SDS011;67273;52.914;-0.982;2023-08-07T08:55:56;2.58;;;1.40;;
53549;SDS011;67273;52.914;-0.982;2023-08-07T08:58:21;3.78;;;1.50;;
53549;SDS011;67273;52.914;-0.982;2023-08-07T09:00:48;3.13;;;1.50;;
53549;SDS011;67273;52.914;-0.982;2023-08-07T09:03:17;5.10;;;1.60;;
53549;SDS011;67273;52.914;-0.982;2023-08-07T09:05:45;5.72;;;1.80;;
53549;SDS011;67273;52.914;-0.982;2023-08-07T09:08:12;3.17;;;1.50;;
53549;SDS011;67273;52.914;-0.982;2023-08-07T09:10:38;4.90;;;1.50;;
53549;SDS011;67273;52.914;-0.982;2023-08-07T09:13:04;5.45;;;1.67;;
53549;SDS011;67273;52.914;-0.982;2023-08-07T09:15:35;5.65;;;1.60;;
53549;SDS011;67273;52.914;-0.982;2023-08-07T09:18:04;5.60;;;1.80;;
53549;SDS011;67273;52.914;-0.982;2023-08-07T09:20:34;3.22;;;1.60;;
53549;SDS011;67273;52.914;-0.982;2023-08-07T09:23:00;3.42;;;1.65;;
53549;SDS011;67273;52.914;-0.982;2023-08-07T09:25:26;4.82;;;1.60;;
53549;SDS011;67273;52.914;-0.982;2023-08-07T09:27:53;3.20;;;1.70;;
53549;SDS011;67273;52.914;-0.982;2023-08-07T09:30:20;6.43;;;1.80;;
53549;SDS011;67273;52.914;-0.982;2023-08-07T09:32:47;2.88;;;1.60;;
53549;SDS011;67273;52.914;-0.982;2023-08-07T09:35:13;4.78;;;1.70;;
53549;SDS011;67273;52.914;-0.982;2023-08-07T09:37:41;3.55;;;1.70;;
53549;SDS011;67273;52.914;-0.982;2023-08-07T09:40:09;2.67;;;1.60;;
53549;SDS011;67273;52.914;-0.982;2023-08-07T09:42:37;3.10;;;1.85;;
53549;SDS011;67273;52.914;-0.982;2023-08-07T09:45:07;4.07;;;1.80;;
53549;SDS011;67273;52.914;-0.982;2023-08-07T09:47:44;4.80;;;2.00;;
53549;SDS011;67273;52.914;-0.982;2023-08-07T09:50:13;3.25;;;1.70;;
53549;SDS011;67273;52.914;-0.982;2023-08-07T09:52:43;2.58;;;1.75;;
53549;SDS011;67273;52.914;-0.982;2023-08-07T09:55:12;3.50;;;1.75;;
53549;SDS011;67273;52.914;-0.982;2023-08-07T09:57:41;3.05;;;1.80;;
53549;SDS011;67273;52.914;-0.982;2023-08-07T10:00:08;4.10;;;2.08;;
53549;SDS011;67273;52.914;-0.982;2023-08-07T10:05:07;2.55;;;1.60;;
53549;SDS011;67273;52.914;-0.982;2023-08-07T10:07:35;2.78;;;1.67;;
53549;SDS011;67273;52.914;-0.982;2023-08-07T10:10:03;3.15;;;1.70;;
53549;SDS011;67273;52.914;-0.982;2023-08-07T10:12:30;3.88;;;1.67;;
53549;SDS011;67273;52.914;-0.982;2023-08-07T10:14:57;3.08;;;1.67;;
53549;SDS011;67273;52.914;-0.982;2023-08-07T10:17:24;2.53;;;1.58;;
53549;SDS011;67273;52.914;-0.982;2023-08-07T10:19:50;3.03;;;1.80;;
53549;SDS011;67273;52.914;-0.982;2023-08-07T10:22:17;2.78;;;1.52;;
53549;SDS011;67273;52.914;-0.982;2023-08-07T10:24:45;3.80;;;1.80;;
53549;SDS011;67273;52.914;-0.982;2023-08-07T10:27:15;2.28;;;1.60;;
53549;SDS011;67273;52.914;-0.982;2023-08-07T10:29:41;2.55;;;1.58;;
53549;SDS011;67273;52.914;-0.982;2023-08-07T10:32:10;2.55;;;1.40;;
53549;SDS011;67273;52.914;-0.982;2023-08-07T10:34:40;3.58;;;1.73;;
53549;SDS011;67273;52.914;-0.982;2023-08-07T10:37:11;2.30;;;1.50;;
53549;SDS011;67273;52.914;-0.982;2023-08-07T10:40:01;3.47;;;2.08;;
53549;SDS011;67273;52.914;-0.982;2023-08-07T10:45:28;3.78;;;1.60;;
53549;SDS011;67273;52.914;-0.982;2023-08-07T10:47:57;3.92;;;1.70;;
53549;SDS011;67273;52.914;-0.982;2023-08-07T10:50:28;3.13;;;1.60;;
53549;SDS011;67273;52.914;-0.982;2023-08-07T10:52:55;1.90;;;1.60;;
53549;SDS011;67273;52.914;-0.982;2023-08-07T10:55:21;4.80;;;1.83;;
53549;SDS011;67273;52.914;-0.982;2023-08-07T10:57:48;2.40;;;1.60;;
53549;SDS011;67273;52.914;-0.982;2023-08-07T11:00:14;3.58;;;1.70;;
53549;SDS011;67273;52.914;-0.982;2023-08-07T11:02:42;2.90;;;1.70;;
53549;SDS011;67273;52.914;-0.982;2023-08-07T11:05:08;3.53;;;1.65;;
53549;SDS011;67273;52.914;-0.982;2023-08-07T11:07:34;2.83;;;1.70;;
53549;SDS011;67273;52.914;-0.982;2023-08-07T11:10:05;4.82;;;1.90;;
53549;SDS011;67273;52.914;-0.982;2023-08-07T11:12:31;2.33;;;1.60;;
53549;SDS011;67273;52.914;-0.982;2023-08-07T11:14:57;1.88;;;1.52;;
53549;SDS011;67273;52.914;-0.982;2023-08-07T11:17:24;4.07;;;1.48;;
53549;SDS011;67273;52.914;-0.982;2023-08-07T11:19:51;2.65;;;1.40;;
53549;SDS011;67273;52.914;-0.982;2023-08-07T11:22:17;4.22;;;1.88;;
53549;SDS011;67273;52.914;-0.982;2023-08-07T11:24:42;7.75;;;2.75;;
53549;SDS011;67273;52.914;-0.982;2023-08-07T11:27:08;7.70;;;2.90;;
53549;SDS011;67273;52.914;-0.982;2023-08-07T11:29:34;6.30;;;2.70;;
53549;SDS011;67273;52.914;-0.982;2023-08-07T11:32:00;6.00;;;2.65;;
53549;SDS011;67273;52.914;-0.982;2023-08-07T11:34:25;7.50;;;2.80;;
53549;SDS011;67273;52.914;-0.982;2023-08-07T11:36:52;11.50;;;3.63;;
53549;SDS011;67273;52.914;-0.982;2023-08-07T11:39:20;6.88;;;2.78;;
53549;SDS011;67273;52.914;-0.982;2023-08-07T11:41:46;7.60;;;3.08;;
53549;SDS011;67273;52.914;-0.982;2023-08-07T11:44:13;6.00;;;2.67;;
53549;SDS011;67273;52.914;-0.982;2023-08-07T11:46:39;6.90;;;2.88;;
53549;SDS011;67273;52.914;-0.982;2023-08-07T11:49:05;4.50;;;2.33;;
53549;SDS011;67273;52.914;-0.982;2023-08-07T11:51:31;7.85;;;2.92;;
53549;SDS011;67273;52.914;-0.982;2023-08-07T11:53:59;8.73;;;4.00;;
53549;SDS011;67273;52.914;-0.982;2023-08-07T11:56:25;10.13;;;5.57;;
53549;SDS011;67273;52.914;-0.982;2023-08-07T11:58:51;11.15;;;6.82;;
53549;SDS011;67273;52.914;-0.982;2023-08-07T12:01:19;12.90;;;5.97;;
53549;SDS011;67273;52.914;-0.982;2023-08-07T12:03:50;10.80;;;6.00;;
53549;SDS011;67273;52.914;-0.982;2023-08-07T12:06:17;8.60;;;5.30;;
53549;SDS011;67273;52.914;-0.982;2023-08-07T12:08:43;9.98;;;5.20;;
53549;SDS011;67273;52.914;-0.982;2023-08-07T12:11:10;8.95;;;4.55;;
53549;SDS011;67273;52.914;-0.982;2023-08-07T12:13:37;6.63;;;4.45;;
53549;SDS011;67273;52.914;-0.982;2023-08-07T12:16:05;9.40;;;4.22;;
53549;SDS011;67273;52.914;-0.982;2023-08-07T12:18:31;10.75;;;4.38;;
53549;SDS011;67273;52.914;-0.982;2023-08-07T12:20:58;7.15;;;3.83;;
53549;SDS011;67273;52.914;-0.982;2023-08-07T12:23:25;6.63;;;3.83;;
53549;SDS011;67273;52.914;-0.982;2023-08-07T12:25:51;7.35;;;3.72;;
53549;SDS011;67273;52.914;-0.982;2023-08-07T12:28:19;7.07;;;3.67;;
53549;SDS011;67273;52.914;-0.982;2023-08-07T12:30:45;6.55;;;3.40;;
53549;SDS011;67273;52.914;-0.982;2023-08-07T12:33:12;8.25;;;3.67;;
53549;SDS011;67273;52.914;-0.982;2023-08-07T12:35:38;8.18;;;3.92;;
53549;SDS011;67273;52.914;-0.982;2023-08-07T12:38:05;7.25;;;4.15;;
53549;SDS011;67273;52.914;-0.982;2023-08-07T12:40:30;7.07;;;3.90;;
53549;SDS011;67273;52.914;-0.982;2023-08-07T12:43:02;10.98;;;4.38;;
53549;SDS011;67273;52.914;-0.982;2023-08-07T12:45:29;7.95;;;4.38;;
53549;SDS011;67273;52.914;-0.982;2023-08-07T12:47:55;6.70;;;3.60;;
53549;SDS011;67273;52.914;-0.982;2023-08-07T12:50:21;7.95;;;3.60;;
53549;SDS011;67273;52.914;-0.982;2023-08-07T12:52:47;7.80;;;3.50;;
53549;SDS011;67273;52.914;-0.982;2023-08-07T12:55:13;6.82;;;3.20;;
53549;SDS011;67273;52.914;-0.982;2023-08-07T12:57:39;6.47;;;3.28;;
53549;SDS011;67273;52.914;-0.982;2023-08-07T13:00:06;5.03;;;2.80;;
53549;SDS011;67273;52.914;-0.982;2023-08-07T13:02:35;5.35;;;2.83;;
53549;SDS011;67273;52.914;-0.982;2023-08-07T13:05:01;5.95;;;2.70;;
53549;SDS011;67273;52.914;-0.982;2023-08-07T13:07:26;5.55;;;2.83;;
53549;SDS011;67273;52.914;-0.982;2023-08-07T13:09:52;6.05;;;2.60;;
53549;SDS011;67273;52.914;-0.982;2023-08-07T13:12:18;7.40;;;2.72;;
53549;SDS011;67273;52.914;-0.982;2023-08-07T13:14:44;5.90;;;2.70;;
53549;SDS011;67273;52.914;-0.982;2023-08-07T13:17:09;4.55;;;2.42;;
53549;SDS011;67273;52.914;-0.982;2023-08-07T13:19:36;4.07;;;2.13;;
53549;SDS011;67273;52.914;-0.982;2023-08-07T13:22:02;5.68;;;2.42;;
53549;SDS011;67273;52.914;-0.982;2023-08-07T13:24:28;4.43;;;2.08;;
53549;SDS011;67273;52.914;-0.982;2023-08-07T13:26:54;4.45;;;1.85;;
53549;SDS011;67273;52.914;-0.982;2023-08-07T13:29:20;5.13;;;2.10;;
53549;SDS011;67273;52.914;-0.982;2023-08-07T13:31:46;3.75;;;1.85;;
53549;SDS011;67273;52.914;-0.982;2023-08-07T13:34:13;3.90;;;2.10;;
53549;SDS011;67273;52.914;-0.982;2023-08-07T13:36:41;3.83;;;1.70;;
53549;SDS011;67273;52.914;-0.982;2023-08-07T13:39:06;5.15;;;1.98;;
53549;SDS011;67273;52.914;-0.982;2023-08-07T13:41:32;4.32;;;2.10;;
53549;SDS011;67273;52.914;-0.982;2023-08-07T13:43:58;13.25;;;2.20;;
53549;SDS011;67273;52.914;-0.982;2023-08-07T13:46:24;4.03;;;1.70;;
53549;SDS011;67273;52.914;-0.982;2023-08-07T13:48:50;7.85;;;1.90;;
53549;SDS011;67273;52.914;-0.982;2023-08-07T13:51:16;5.15;;;2.00;;
53549;SDS011;67273;52.914;-0.982;2023-08-07T13:53:44;3.83;;;1.90;;
53549;SDS011;67273;52.914;-0.982;2023-08-07T13:56:09;2.85;;;1.67;;
53549;SDS011;67273;52.914;-0.982;2023-08-07T13:58:37;5.53;;;1.88;;
53549;SDS011;67273;52.914;-0.982;2023-08-07T14:01:03;2.78;;;1.58;;
53549;SDS011;67273;52.914;-0.982;2023-08-07T14:03:29;4.95;;;1.55;;
53549;SDS011;67273;52.914;-0.982;2023-08-07T14:05:55;5.95;;;2.05;;
53549;SDS011;67273;52.914;-0.982;2023-08-07T14:08:21;4.78;;;1.80;;
53549;SDS011;67273;52.914;-0.982;2023-08-07T14:10:48;6.72;;;2.35;;
53549;SDS011;67273;52.914;-0.982;2023-08-07T14:13:14;4.03;;;1.52;;
53549;SDS011;67273;52.914;-0.982;2023-08-07T14:15:41;4.97;;;1.75;;
53549;SDS011;67273;52.914;-0.982;2023-08-07T14:18:07;4.22;;;1.80;;
53549;SDS011;67273;52.914;-0.982;2023-08-07T14:20:34;7.03;;;2.10;;
53549;SDS011;67273;52.914;-0.982;2023-08-07T14:23:00;13.32;;;2.10;;
53549;SDS011;67273;52.914;-0.982;2023-08-07T14:25:26;3.47;;;1.90;;
53549;SDS011;67273;52.914;-0.982;2023-08-07T14:27:53;6.50;;;1.90;;
53549;SDS011;67273;52.914;-0.982;2023-08-07T14:30:19;4.28;;;1.90;;
53549;SDS011;67273;52.914;-0.982;2023-08-07T14:32:45;4.80;;;2.20;;
53549;SDS011;67273;52.914;-0.982;2023-08-07T14:35:13;7.63;;;2.30;;
53549;SDS011;67273;52.914;-0.982;2023-08-07T14:37:39;3.45;;;1.73;;